createdAt,value
2022-10-05T00:00:19.375Z,23.09
2022-10-05T00:02:47.687Z,23.10
2022-10-05T00:05:21.304Z,23.10
2022-10-05T00:07:49.223Z,23.09
2022-10-05T00:10:19.769Z,23.09
2022-10-05T00:12:47.885Z,23.09
2022-10-05T00:15:16.789Z,23.08
2022-10-05T00:17:44.765Z,23.09
2022-10-05T00:20:21.682Z,23.08
2022-10-05T00:22:49.700Z,23.07
2022-10-05T00:25:19.834Z,23.07
2022-10-05T00:27:49.939Z,23.06
2022-10-05T00:30:19.018Z,23.06
2022-10-05T00:32:47.010Z,23.03
2022-10-05T00:35:15.627Z,23.04
2022-10-05T00:37:43.986Z,23.04
2022-10-05T00:40:16.986Z,23.01
2022-10-05T00:42:49.729Z,23.01
2022-10-05T00:45:19.299Z,23.00
2022-10-05T00:47:51.832Z,23.00
2022-10-05T00:50:40.641Z,23.00
2022-10-05T00:53:12.884Z,22.99
2022-10-05T00:55:46.753Z,22.98
2022-10-05T00:58:22.323Z,22.98
2022-10-05T01:00:52.835Z,22.97
2022-10-05T01:03:22.802Z,22.97
2022-10-05T01:05:57.790Z,22.97
2022-10-05T01:08:30.930Z,22.97
2022-10-05T01:11:04.248Z,22.97
2022-10-05T01:13:36.236Z,22.96
2022-10-05T01:16:06.820Z,22.97
2022-10-05T01:18:39.091Z,22.96
2022-10-05T01:21:09.499Z,22.96
2022-10-05T01:23:59.444Z,22.95
2022-10-05T01:26:47.145Z,22.95
2022-10-05T01:29:18.289Z,22.95
2022-10-05T01:31:48.668Z,22.95
2022-10-05T01:34:20.744Z,22.94
2022-10-05T01:36:52.435Z,22.93
2022-10-05T01:39:24.128Z,22.93
2022-10-05T01:41:55.068Z,22.92
2022-10-05T01:44:26.349Z,22.92
2022-10-05T01:46:57.816Z,22.91
2022-10-05T01:49:34.853Z,22.90
2022-10-05T01:52:09.470Z,22.89
2022-10-05T01:54:40.024Z,22.88
2022-10-05T01:57:11.783Z,22.88
2022-10-05T01:59:48.796Z,22.86
2022-10-05T02:02:18.382Z,22.87
2022-10-05T02:05:03.483Z,22.86
2022-10-05T02:07:33.775Z,22.85
2022-10-05T02:10:03.515Z,22.84
2022-10-05T02:12:32.774Z,22.84
2022-10-05T02:15:04.445Z,22.83
2022-10-05T02:17:34.064Z,22.86
2022-10-05T02:20:04.188Z,22.85
2022-10-05T02:22:34.906Z,22.85
2022-10-05T02:25:04.796Z,22.84
2022-10-05T02:27:34.496Z,22.84
2022-10-05T02:30:06.739Z,22.83
2022-10-05T02:32:40.429Z,22.84
2022-10-05T02:35:14.254Z,22.84
2022-10-05T02:37:45.798Z,22.83
2022-10-05T02:40:20.202Z,22.82
2022-10-05T02:42:52.251Z,22.82
2022-10-05T02:45:25.062Z,22.81
2022-10-05T02:47:55.866Z,22.81
2022-10-05T02:50:27.214Z,22.80
2022-10-05T02:53:00.430Z,22.79
2022-10-05T02:55:31.056Z,22.79
2022-10-05T02:58:01.220Z,22.77
2022-10-05T03:00:32.567Z,22.78
2022-10-05T03:03:02.673Z,22.77
2022-10-05T03:05:32.091Z,22.76
2022-10-05T03:08:04.173Z,22.76
2022-10-05T03:10:36.105Z,22.77
2022-10-05T03:13:08.316Z,22.76
2022-10-05T03:16:04.102Z,22.74
2022-10-05T03:18:39.555Z,22.72
2022-10-05T03:21:14.111Z,22.74
2022-10-05T03:23:44.349Z,22.71
2022-10-05T03:26:20.165Z,22.71
2022-10-05T03:28:52.473Z,22.71
2022-10-05T03:31:24.072Z,22.70
2022-10-05T03:33:54.537Z,22.69
2022-10-05T03:36:24.527Z,22.69
2022-10-05T03:38:55.888Z,22.70
2022-10-05T03:41:26.574Z,22.69
2022-10-05T03:44:17.936Z,22.69
2022-10-05T03:46:51.322Z,22.69
2022-10-05T03:49:22.763Z,22.67
2022-10-05T03:51:52.265Z,22.67
2022-10-05T03:54:23.711Z,22.66
2022-10-05T03:56:53.651Z,22.66
2022-10-05T03:59:22.709Z,22.65
2022-10-05T04:01:54.103Z,22.66
2022-10-05T04:04:25.356Z,22.65
2022-10-05T04:06:55.306Z,22.64
2022-10-05T04:09:25.256Z,22.64
2022-10-05T04:11:55.745Z,22.65
2022-10-05T04:14:25.082Z,22.65
2022-10-05T04:16:56.696Z,22.65
2022-10-05T04:19:25.851Z,22.66
2022-10-05T04:21:54.695Z,22.65
2022-10-05T04:24:25.232Z,22.65
2022-10-05T04:26:54.716Z,22.65
2022-10-05T04:29:28.027Z,22.66
2022-10-05T04:32:08.560Z,22.66
2022-10-05T04:34:45.717Z,22.65
2022-10-05T04:37:15.911Z,22.65
2022-10-05T04:39:47.326Z,22.65
2022-10-05T04:42:18.519Z,22.65
2022-10-05T04:44:59.136Z,22.65
2022-10-05T04:47:40.653Z,22.65
2022-10-05T04:50:18.784Z,22.64
2022-10-05T04:52:52.439Z,22.64
2022-10-05T04:55:26.290Z,22.63
2022-10-05T04:57:56.639Z,22.63
2022-10-05T05:00:24.783Z,22.61
2022-10-05T05:03:33.549Z,22.61
2022-10-05T05:06:19.294Z,22.60
2022-10-05T05:09:06.085Z,22.58
2022-10-05T05:11:35.883Z,22.58
2022-10-05T05:14:26.845Z,22.59
2022-10-05T05:16:58.564Z,22.58
2022-10-05T05:19:38.525Z,22.57
2022-10-05T05:22:08.471Z,22.56
2022-10-05T05:24:42.195Z,22.57
2022-10-05T05:27:41.701Z,22.57
2022-10-05T05:30:20.213Z,22.58
2022-10-05T05:32:55.141Z,22.58
2022-10-05T05:35:45.076Z,22.60
2022-10-05T05:38:20.716Z,22.59
2022-10-05T05:40:51.182Z,22.62
2022-10-05T05:43:25.008Z,22.64
2022-10-05T05:45:58.799Z,22.64
2022-10-05T05:48:29.940Z,22.64
2022-10-05T05:51:01.110Z,22.65
2022-10-05T05:53:30.871Z,22.65
2022-10-05T05:56:01.144Z,22.63
2022-10-05T05:58:30.929Z,22.65
2022-10-05T06:00:59.751Z,22.66
2022-10-05T06:03:29.425Z,22.66
2022-10-05T06:06:00.325Z,22.67
2022-10-05T06:08:32.133Z,22.67
2022-10-05T06:11:00.932Z,22.68
2022-10-05T06:13:36.963Z,22.68
2022-10-05T06:16:09.323Z,22.70
2022-10-05T06:18:38.372Z,22.70
2022-10-05T06:21:09.582Z,22.73
2022-10-05T06:23:40.276Z,22.76
2022-10-05T06:26:13.277Z,22.79
2022-10-05T06:28:41.250Z,22.81
2022-10-05T06:31:16.959Z,22.82
2022-10-05T06:33:48.818Z,22.85
2022-10-05T06:36:24.793Z,22.90
2022-10-05T06:39:05.572Z,22.92
2022-10-05T06:41:38.550Z,22.95
2022-10-05T06:44:09.186Z,22.97
2022-10-05T06:46:39.542Z,23.00
2022-10-05T06:49:15.668Z,23.02
2022-10-05T06:51:50.885Z,23.06
2022-10-05T06:54:26.976Z,23.08
2022-10-05T06:56:57.196Z,23.07
2022-10-05T06:59:26.519Z,23.09
2022-10-05T07:01:57.067Z,23.09
2022-10-05T07:04:46.491Z,23.09
2022-10-05T07:07:20.655Z,23.12
2022-10-05T07:09:53.976Z,23.13
2022-10-05T07:12:46.617Z,23.16
2022-10-05T07:15:26.785Z,23.17
2022-10-05T07:18:01.416Z,23.19
2022-10-05T07:20:30.513Z,23.20
2022-10-05T07:23:05.888Z,23.21
2022-10-05T07:25:37.174Z,23.22
2022-10-05T07:28:07.821Z,23.22
2022-10-05T07:30:39.415Z,23.23
2022-10-05T07:33:09.429Z,23.25
2022-10-05T07:35:59.758Z,23.26
2022-10-05T07:38:33.000Z,23.29
2022-10-05T07:41:05.028Z,23.31
2022-10-05T07:44:00.550Z,23.32
2022-10-05T07:46:26.607Z,23.34
2022-10-05T07:48:58.442Z,23.36
2022-10-05T07:51:30.430Z,23.36
2022-10-05T07:54:04.536Z,23.40
2022-10-05T07:56:35.369Z,23.41
2022-10-05T07:59:07.831Z,23.43
2022-10-05T08:01:36.918Z,23.47
2022-10-05T08:04:06.406Z,23.49
2022-10-05T08:06:45.269Z,23.51
2022-10-05T08:09:34.806Z,23.53
2022-10-05T08:12:12.230Z,23.55
2022-10-05T08:14:44.123Z,23.57
2022-10-05T08:17:14.685Z,23.60
2022-10-05T08:19:44.805Z,23.62
2022-10-05T08:22:17.624Z,23.64
2022-10-05T08:24:51.620Z,23.66
2022-10-05T08:27:22.673Z,23.68
2022-10-05T08:29:55.635Z,23.68
2022-10-05T08:32:25.308Z,23.70
2022-10-05T08:34:55.295Z,23.72
2022-10-05T08:37:24.800Z,23.75
2022-10-05T08:39:57.099Z,23.77
2022-10-05T08:42:43.087Z,23.80
2022-10-05T08:45:36.531Z,23.82
2022-10-05T08:48:20.801Z,23.86
2022-10-05T08:51:09.224Z,23.88
2022-10-05T08:53:56.969Z,23.85
2022-10-05T08:56:31.592Z,23.82
2022-10-05T08:59:05.129Z,23.73
2022-10-05T09:01:38.004Z,23.69
2022-10-05T09:04:20.414Z,23.72
2022-10-05T09:07:09.857Z,23.73
2022-10-05T09:10:01.686Z,23.76
2022-10-05T09:13:19.857Z,23.78
2022-10-05T09:16:13.350Z,23.80
2022-10-05T09:19:05.601Z,23.82
2022-10-05T09:21:41.825Z,23.82
2022-10-05T09:24:24.215Z,23.85
2022-10-05T09:27:04.654Z,23.85
2022-10-05T09:30:00.033Z,23.88
2022-10-05T09:32:35.083Z,23.89
2022-10-05T09:35:15.322Z,23.89
2022-10-05T09:38:05.167Z,23.88
2022-10-05T09:41:14.048Z,23.94
2022-10-05T09:44:20.140Z,23.99
2022-10-05T09:47:21.151Z,24.00
2022-10-05T09:50:00.663Z,24.03
2022-10-05T09:53:08.428Z,24.03
2022-10-05T09:56:11.455Z,24.07
2022-10-05T09:59:03.279Z,24.10
2022-10-05T10:01:44.026Z,24.05
2022-10-05T10:04:36.502Z,24.05
2022-10-05T10:07:35.786Z,24.02
2022-10-05T10:10:21.053Z,24.00
2022-10-05T10:12:58.276Z,23.98
2022-10-05T10:23:00.487Z,23.91
2022-10-05T10:26:01.888Z,23.91
2022-10-05T10:28:52.545Z,23.97
2022-10-05T10:31:46.342Z,23.97
2022-10-05T10:34:44.391Z,23.94
2022-10-05T10:37:25.594Z,23.90
2022-10-05T10:40:04.771Z,23.88
2022-10-05T10:42:38.182Z,23.87
2022-10-05T10:45:19.690Z,23.85
2022-10-05T10:47:52.089Z,23.81
2022-10-05T10:50:51.324Z,23.78
2022-10-05T10:53:39.373Z,23.79
2022-10-05T10:56:16.288Z,23.80
2022-10-05T10:58:59.068Z,23.82
2022-10-05T11:01:34.268Z,23.80
2022-10-05T11:04:18.762Z,23.81
2022-10-05T11:07:34.392Z,23.81
2022-10-05T11:10:27.247Z,23.81
2022-10-05T11:13:24.819Z,23.80
2022-10-05T11:18:48.411Z,23.75
2022-10-05T11:21:24.299Z,23.76
2022-10-05T11:24:18.891Z,23.77
2022-10-05T11:26:58.061Z,23.81
2022-10-05T11:29:36.804Z,23.78
2022-10-05T11:32:18.090Z,23.80
2022-10-05T11:35:24.562Z,23.80
2022-10-05T11:38:15.438Z,23.83
2022-10-05T11:41:17.480Z,23.80
2022-10-05T11:44:06.100Z,23.79
2022-10-05T11:46:37.836Z,23.78
2022-10-05T11:49:22.394Z,23.77
2022-10-05T11:51:57.205Z,23.77
2022-10-05T11:54:58.731Z,23.74
2022-10-05T11:57:29.221Z,23.72
2022-10-05T11:59:59.426Z,23.68
2022-10-05T12:02:48.017Z,23.74
2022-10-05T12:05:18.799Z,23.76
2022-10-05T12:07:52.055Z,23.77
2022-10-05T12:10:29.052Z,23.79
2022-10-05T12:13:06.162Z,23.81
2022-10-05T12:15:38.618Z,23.84
2022-10-05T12:18:08.502Z,23.87
2022-10-05T12:20:40.200Z,23.87
2022-10-05T12:23:12.143Z,23.87
2022-10-05T12:25:44.053Z,23.87
2022-10-05T12:28:13.340Z,23.89
2022-10-05T12:30:57.926Z,23.89
2022-10-05T12:33:27.145Z,23.90
2022-10-05T12:35:57.069Z,23.92
2022-10-05T12:38:28.914Z,23.92
2022-10-05T12:41:05.262Z,23.92
2022-10-05T12:43:37.391Z,23.95
2022-10-05T12:46:10.197Z,23.95
2022-10-05T12:48:56.943Z,23.99
2022-10-05T12:51:32.087Z,24.01
2022-10-05T12:54:02.968Z,24.05
2022-10-05T12:56:38.009Z,24.08
2022-10-05T12:59:10.668Z,24.10
2022-10-05T13:01:41.252Z,24.13
2022-10-05T13:04:20.499Z,24.17
2022-10-05T13:07:06.853Z,24.20
2022-10-05T13:09:38.029Z,24.22
2022-10-05T13:12:09.295Z,24.26
2022-10-05T13:14:44.648Z,24.28
2022-10-05T13:17:15.523Z,24.29
2022-10-05T13:19:45.035Z,24.30
2022-10-05T13:22:28.911Z,24.32
2022-10-05T13:25:03.148Z,24.35
2022-10-05T13:28:20.682Z,24.36
2022-10-05T13:30:57.854Z,24.34
2022-10-05T13:33:34.108Z,24.32
2022-10-05T13:36:05.805Z,24.32
2022-10-05T13:38:40.096Z,24.32
2022-10-05T13:41:11.955Z,24.32
2022-10-05T13:43:44.695Z,24.32
2022-10-05T13:46:18.730Z,24.33
2022-10-05T13:48:53.561Z,24.32
2022-10-05T13:51:23.249Z,24.32
2022-10-05T13:53:56.221Z,24.32
2022-10-05T13:56:27.072Z,24.31
2022-10-05T13:59:00.089Z,24.33
2022-10-05T14:01:36.639Z,24.31
2022-10-05T14:04:07.559Z,24.31
2022-10-05T14:06:37.784Z,24.30
2022-10-05T14:09:05.960Z,24.30
2022-10-05T14:11:34.889Z,24.31
2022-10-05T14:14:05.897Z,24.31
2022-10-05T14:16:35.755Z,24.34
2022-10-05T14:19:18.926Z,24.38
2022-10-05T14:21:50.831Z,24.41
2022-10-05T14:24:32.244Z,24.44
2022-10-05T14:27:19.264Z,24.46
2022-10-05T14:29:49.226Z,24.47
2022-10-05T14:32:18.736Z,24.49
2022-10-05T14:34:47.109Z,24.53
2022-10-05T14:37:19.303Z,24.56
2022-10-05T14:39:48.878Z,24.60
2022-10-05T14:42:19.324Z,24.63
2022-10-05T14:44:47.927Z,24.66
2022-10-05T14:47:27.433Z,24.66
2022-10-05T14:50:10.378Z,24.64
2022-10-05T14:52:41.326Z,24.60
2022-10-05T14:55:25.595Z,24.59
2022-10-05T14:58:25.450Z,24.63
2022-10-05T15:00:57.994Z,24.66
2022-10-05T15:03:35.489Z,24.68
2022-10-05T15:06:04.494Z,24.67
2022-10-05T15:08:45.246Z,24.64
2022-10-05T15:11:18.327Z,24.60
2022-10-05T15:14:20.997Z,24.59
2022-10-05T15:16:52.850Z,24.55
2022-10-05T15:19:23.953Z,24.54
2022-10-05T15:22:11.025Z,24.53
2022-10-05T15:24:43.841Z,24.50
2022-10-05T15:27:17.186Z,24.49
2022-10-05T15:29:52.418Z,24.49
2022-10-05T15:32:28.553Z,24.47
2022-10-05T15:35:08.599Z,24.46
2022-10-05T15:37:39.322Z,24.44
2022-10-05T15:40:09.443Z,24.44
2022-10-05T15:42:38.806Z,24.42
2022-10-05T15:45:12.355Z,24.40
2022-10-05T15:47:47.409Z,24.38
2022-10-05T15:50:21.797Z,24.36
2022-10-05T15:52:54.764Z,24.34
2022-10-05T15:55:27.581Z,24.32
2022-10-05T15:58:02.685Z,24.31
2022-10-05T16:00:32.000Z,24.27
2022-10-05T16:03:05.166Z,24.26
2022-10-05T16:06:00.069Z,24.26
2022-10-05T16:08:57.281Z,24.22
2022-10-05T16:11:55.236Z,24.20
2022-10-05T16:14:31.889Z,24.19
2022-10-05T16:17:09.746Z,24.17
2022-10-05T16:19:39.909Z,24.18
2022-10-05T16:22:15.716Z,24.16
2022-10-05T16:24:53.154Z,24.15
2022-10-05T16:27:25.353Z,24.14
2022-10-05T16:29:56.163Z,24.13
2022-10-05T16:32:26.225Z,24.11
2022-10-05T16:35:02.753Z,24.11
2022-10-05T16:37:37.766Z,24.08
2022-10-05T16:40:09.831Z,24.06
2022-10-05T16:42:47.063Z,24.02
2022-10-05T16:45:29.994Z,23.96
2022-10-05T16:48:02.988Z,23.92
2022-10-05T16:50:33.750Z,23.89
2022-10-05T16:53:05.929Z,23.87
2022-10-05T16:55:36.832Z,23.86
2022-10-05T16:58:06.487Z,23.85
2022-10-05T17:00:42.624Z,23.82
2022-10-05T17:03:28.711Z,23.80
2022-10-05T17:06:04.734Z,23.78
2022-10-05T17:08:57.562Z,23.76
2022-10-05T17:11:32.309Z,23.75
2022-10-05T17:14:11.931Z,23.73
2022-10-05T17:16:47.570Z,23.72
2022-10-05T17:19:42.432Z,23.71
2022-10-05T17:22:14.935Z,23.70
2022-10-05T17:24:55.250Z,23.69
2022-10-05T17:27:35.747Z,23.68
2022-10-05T17:30:26.136Z,23.67
2022-10-05T17:32:59.189Z,23.66
2022-10-05T17:35:49.333Z,23.65
2022-10-05T17:38:20.930Z,23.63
2022-10-05T17:41:16.279Z,23.62
2022-10-05T17:43:58.804Z,23.58
2022-10-05T17:46:39.527Z,23.56
2022-10-05T17:49:19.254Z,23.54
2022-10-05T17:52:27.301Z,23.52
2022-10-05T17:55:30.250Z,23.52
2022-10-05T17:58:01.988Z,23.49
2022-10-05T18:00:46.113Z,23.52
2022-10-05T18:03:37.617Z,23.55
2022-10-05T18:06:34.051Z,23.56
2022-10-05T18:09:30.886Z,23.58
2022-10-05T18:12:26.813Z,23.58
2022-10-05T18:15:01.294Z,23.58
2022-10-05T18:17:42.952Z,23.60
2022-10-05T18:20:21.046Z,23.60
2022-10-05T18:22:53.546Z,23.61
2022-10-05T18:25:27.179Z,23.62
2022-10-05T18:28:16.754Z,23.64
2022-10-05T18:30:59.213Z,23.62
2022-10-05T18:33:52.991Z,23.62
2022-10-05T18:36:37.916Z,23.62
2022-10-05T18:39:13.302Z,23.61
2022-10-05T18:41:48.299Z,23.62
2022-10-05T18:48:16.201Z,23.62
2022-10-05T18:50:46.502Z,23.62
2022-10-05T18:53:24.522Z,23.62
2022-10-05T18:55:55.195Z,23.62
2022-10-05T18:58:27.142Z,23.63
2022-10-05T19:01:20.827Z,23.62
2022-10-05T19:04:00.243Z,23.62
2022-10-05T19:06:29.790Z,23.62
2022-10-05T19:09:04.093Z,23.61
2022-10-05T19:11:34.527Z,23.61
2022-10-05T19:14:07.994Z,23.60
2022-10-05T19:17:00.537Z,23.59
2022-10-05T19:19:51.073Z,23.56
2022-10-05T19:22:25.797Z,23.57
2022-10-05T19:25:01.920Z,23.56
2022-10-05T19:27:38.023Z,23.55
2022-10-05T19:30:18.795Z,23.56
2022-10-05T19:33:27.860Z,23.55
2022-10-05T19:36:02.862Z,23.55
2022-10-05T19:38:34.544Z,23.56
2022-10-05T19:41:06.888Z,23.55
2022-10-05T19:46:52.554Z,23.55
2022-10-05T19:49:40.118Z,23.54
2022-10-05T19:52:24.413Z,23.55
2022-10-05T19:55:14.275Z,23.53
2022-10-05T19:57:48.933Z,23.53
2022-10-05T20:00:24.680Z,23.53
2022-10-05T20:02:53.176Z,23.53
2022-10-05T20:05:24.109Z,23.54
2022-10-05T20:07:53.532Z,23.53
2022-10-05T20:10:35.397Z,23.51
2022-10-05T20:13:03.994Z,23.51
2022-10-05T20:15:50.814Z,23.52
2022-10-05T20:18:59.514Z,23.52
2022-10-05T20:21:44.779Z,23.51
2022-10-05T20:24:16.222Z,23.49
2022-10-05T20:27:05.924Z,23.49
2022-10-05T20:29:36.305Z,23.47
2022-10-05T20:32:08.951Z,23.47
2022-10-05T20:34:42.746Z,23.47
2022-10-05T20:37:11.497Z,23.46
2022-10-05T20:39:41.754Z,23.47
2022-10-05T20:42:10.502Z,23.47
2022-10-05T20:44:39.234Z,23.47
2022-10-05T20:47:08.879Z,23.46
2022-10-05T20:49:37.983Z,23.46
2022-10-05T20:52:06.973Z,23.45
2022-10-05T20:54:35.854Z,23.45
2022-10-05T20:57:06.684Z,23.45
2022-10-05T20:59:35.497Z,23.45
2022-10-05T21:02:03.906Z,23.45
2022-10-05T21:04:41.220Z,23.45
2022-10-05T21:07:10.178Z,23.44
2022-10-05T21:09:40.068Z,23.43
2022-10-05T21:12:09.582Z,23.45
2022-10-05T21:14:45.186Z,23.44
2022-10-05T21:17:13.450Z,23.44
2022-10-05T21:19:42.181Z,23.42
2022-10-05T21:22:10.760Z,23.42
2022-10-05T21:24:41.079Z,23.41
2022-10-05T21:27:11.482Z,23.39
2022-10-05T21:29:41.218Z,23.37
2022-10-05T21:32:12.159Z,23.39
2022-10-05T21:34:40.254Z,23.36
2022-10-05T21:37:08.972Z,23.35
2022-10-05T21:39:36.987Z,23.36
2022-10-05T21:42:06.090Z,23.35
2022-10-05T21:44:35.417Z,23.33
2022-10-05T21:47:04.669Z,23.32
2022-10-05T21:49:32.650Z,23.32
2022-10-05T21:52:01.147Z,23.32
2022-10-05T21:54:30.583Z,23.31
2022-10-05T21:56:59.034Z,23.30
2022-10-05T21:59:28.960Z,23.29
2022-10-05T22:01:58.807Z,23.27
2022-10-05T22:04:26.729Z,23.26
2022-10-05T22:06:54.744Z,23.25
2022-10-05T22:09:23.043Z,23.23
2022-10-05T22:11:51.469Z,23.24
2022-10-05T22:14:19.459Z,23.23
2022-10-05T22:16:47.586Z,23.22
2022-10-05T22:19:17.680Z,23.20
2022-10-05T22:21:45.610Z,23.19
2022-10-05T22:24:13.646Z,23.18
2022-10-05T22:26:41.621Z,23.18
2022-10-05T22:29:09.678Z,23.16
2022-10-05T22:31:37.703Z,23.17
2022-10-05T22:34:05.801Z,23.14
2022-10-05T22:36:36.386Z,23.15
2022-10-05T22:39:04.428Z,23.14
2022-10-05T22:41:32.541Z,23.13
2022-10-05T22:44:00.854Z,23.13
2022-10-05T22:46:29.218Z,23.12
2022-10-05T22:48:57.179Z,23.10
2022-10-05T22:51:25.547Z,23.11
2022-10-05T22:53:54.899Z,23.12
2022-10-05T22:56:22.829Z,23.10
2022-10-05T22:58:51.048Z,23.11
2022-10-05T23:01:19.814Z,23.11
2022-10-05T23:03:47.899Z,23.10
2022-10-05T23:06:16.516Z,23.11
2022-10-05T23:08:44.516Z,23.10
2022-10-05T23:11:15.052Z,23.09
2022-10-05T23:13:43.130Z,23.08
2022-10-05T23:16:11.991Z,23.07
2022-10-05T23:18:40.124Z,23.07
2022-10-05T23:21:08.665Z,23.07
2022-10-05T23:23:37.012Z,23.06
2022-10-05T23:26:05.068Z,23.06
2022-10-05T23:28:34.583Z,23.03
2022-10-05T23:31:03.414Z,23.04
2022-10-05T23:33:31.701Z,23.06
2022-10-05T23:36:00.305Z,23.04
2022-10-05T23:38:28.524Z,23.04
2022-10-05T23:40:58.712Z,23.03
2022-10-05T23:43:26.832Z,23.00
2022-10-05T23:45:56.315Z,22.99
2022-10-05T23:48:24.887Z,22.99
2022-10-05T23:50:53.136Z,22.97
2022-10-05T23:53:21.630Z,22.96
2022-10-05T23:55:50.987Z,22.96
2022-10-05T23:58:18.949Z,22.96
